TimeEDT,TemperatureF,Dew PointF,Humidity,Sea Level PressureIn,VisibilityMPH,Wind Direction,Wind SpeedMPH,Gust SpeedMPH,PrecipitationIn,Events,Conditions,WindDirDegrees,DateUTC
12:15 AM,75.2,71.6,89,-9999,10.0,Calm,Calm,-,N/A,,Unknown,0,2013-10-19 04:15:00
12:35 AM,75.2,71.6,89,-9999,10.0,Calm,Calm,-,N/A,,Unknown,0,2013-10-19 04:35:00
12:55 AM,75.2,71.6,89,-9999,10.0,Calm,Calm,-,N/A,,Unknown,0,2013-10-19 04:55:00
1:15 AM,73.4,71.6,94,-9999,10.0,Calm,Calm,-,N/A,,Unknown,0,2013-10-19 05:15:00
1:35 AM,73.4,71.6,94,-9999,10.0,Calm,Calm,-,N/A,,Unknown,0,2013-10-19 05:35:00
1:55 AM,73.4,71.6,94,-9999,10.0,Calm,Calm,-,N/A,,Unknown,0,2013-10-19 05:55:00
2:15 AM,73.4,71.6,94,-9999,10.0,Calm,Calm,-,N/A,,Unknown,0,2013-10-19 06:15:00
2:35 AM,73.4,71.6,94,-9999,10.0,SE,5.8,-,N/A,,Unknown,140,2013-10-19 06:35:00
2:55 AM,73.4,71.6,94,-9999,10.0,Calm,Calm,-,N/A,,Unknown,0,2013-10-19 06:55:00
3:15 AM,73.4,71.6,94,-9999,10.0,Calm,Calm,-,N/A,,Unknown,0,2013-10-19 07:15:00
3:35 AM,73.4,71.6,94,-9999,10.0,Calm,Calm,-,N/A,,Unknown,0,2013-10-19 07:35:00
3:55 AM,73.4,71.6,94,-9999,10.0,Calm,Calm,-,N/A,,Unknown,0,2013-10-19 07:55:00
4:15 AM,73.4,69.8,88,-9999,10.0,Calm,Calm,-,N/A,,Unknown,0,2013-10-19 08:15:00
4:35 AM,73.4,69.8,88,-9999,10.0,Calm,Calm,-,N/A,,Unknown,0,2013-10-19 08:35:00
4:55 AM,73.4,69.8,88,-9999,10.0,Calm,Calm,-,N/A,,Unknown,0,2013-10-19 08:55:00
5:15 AM,73.4,69.8,88,-9999,10.0,Calm,Calm,-,N/A,,Unknown,0,2013-10-19 09:15:00
5:35 AM,71.6,69.8,94,-9999,10.0,Calm,Calm,-,N/A,,Unknown,0,2013-10-19 09:35:00
5:55 AM,71.6,69.8,94,-9999,10.0,Calm,Calm,-,N/A,,Unknown,0,2013-10-19 09:55:00
6:15 AM,71.6,69.8,94,-9999,10.0,Calm,Calm,-,N/A,,Unknown,0,2013-10-19 10:15:00
6:35 AM,71.6,69.8,94,-9999,10.0,Calm,Calm,-,N/A,,Unknown,0,2013-10-19 10:35:00
6:55 AM,71.6,69.8,94,-9999,10.0,Calm,Calm,-,N/A,,Unknown,0,2013-10-19 10:55:00
7:15 AM,71.6,69.8,94,-9999,10.0,Calm,Calm,-,N/A,,Unknown,0,2013-10-19 11:15:00
7:35 AM,71.6,69.8,94,-9999,10.0,Calm,Calm,-,N/A,,Unknown,0,2013-10-19 11:35:00
7:55 AM,71.6,69.8,94,-9999,10.0,Calm,Calm,-,N/A,,Unknown,0,2013-10-19 11:55:00
8:15 AM,73.4,71.6,94,-9999,10.0,Calm,Calm,-,N/A,,Unknown,0,2013-10-19 12:15:00
8:35 AM,73.4,71.6,94,-9999,10.0,South,3.5,-,N/A,,Unknown,170,2013-10-19 12:35:00
8:55 AM,75.2,71.6,89,-9999,10.0,SSE,4.6,-,N/A,,Unknown,160,2013-10-19 12:55:00
9:15 AM,77.0,71.6,83,-9999,10.0,South,6.9,-,N/A,,Unknown,180,2013-10-19 13:15:00
9:35 AM,78.8,71.6,78,-9999,10.0,South,6.9,-,N/A,,Unknown,180,2013-10-19 13:35:00
9:55 AM,80.6,71.6,74,-9999,10.0,SSW,8.1,-,N/A,,Unknown,200,2013-10-19 13:55:00
10:15 AM,80.6,71.6,74,-9999,10.0,South,6.9,-,N/A,,Unknown,180,2013-10-19 14:15:00
10:35 AM,80.6,71.6,74,-9999,10.0,SSE,8.1,-,N/A,,Unknown,160,2013-10-19 14:35:00
10:55 AM,82.4,71.6,70,-9999,10.0,South,10.4,-,N/A,,Unknown,180,2013-10-19 14:55:00
11:15 AM,84.2,69.8,62,-9999,10.0,SSE,9.2,-,N/A,,Unknown,150,2013-10-19 15:15:00
11:35 AM,84.2,69.8,62,-9999,10.0,South,8.1,-,N/A,,Unknown,170,2013-10-19 15:35:00
11:55 AM,84.2,69.8,62,-9999,10.0,SSE,8.1,-,N/A,,Unknown,160,2013-10-19 15:55:00
12:15 PM,86.0,69.8,58,-9999,10.0,South,9.2,-,N/A,,Unknown,170,2013-10-19 16:15:00
12:35 PM,87.8,69.8,55,-9999,10.0,SE,8.1,-,N/A,,Unknown,140,2013-10-19 16:35:00
12:55 PM,87.8,69.8,55,-9999,10.0,SSE,3.5,-,N/A,,Unknown,160,2013-10-19 16:55:00
2:55 PM,89.6,68.0,49,-9999,10.0,SSE,4.6,16.1,N/A,,Unknown,160,2013-10-19 18:55:00
3:15 PM,89.6,69.8,52,-9999,10.0,SSE,9.2,-,N/A,,Unknown,160,2013-10-19 19:15:00
3:35 PM,87.8,69.8,55,-9999,10.0,SSW,8.1,-,N/A,,Unknown,200,2013-10-19 19:35:00
3:55 PM,87.8,69.8,55,-9999,10.0,SSW,4.6,-,N/A,,Unknown,200,2013-10-19 19:55:00
4:15 PM,84.2,71.6,66,-9999,3.0,West,15.0,20.7,0.07,,Unknown,270,2013-10-19 20:15:00
4:35 PM,77.0,73.4,89,-9999,2.5,WNW,10.4,-,0.20,,Unknown,300,2013-10-19 20:35:00
4:55 PM,78.8,73.4,83,-9999,10.0,Calm,Calm,-,0.20,,Unknown,0,2013-10-19 20:55:00
5:15 PM,78.8,75.2,89,-9999,10.0,Calm,Calm,-,N/A,,Unknown,0,2013-10-19 21:15:00
5:35 PM,80.6,75.2,84,-9999,10.0,SSE,3.5,-,N/A,,Unknown,160,2013-10-19 21:35:00
5:55 PM,80.6,73.4,79,-9999,10.0,Calm,Calm,-,N/A,,Unknown,0,2013-10-19 21:55:00
6:15 PM,78.8,75.2,89,-9999,10.0,Calm,Calm,-,N/A,,Unknown,0,2013-10-19 22:15:00
6:35 PM,78.8,75.2,89,-9999,10.0,Calm,Calm,-,N/A,,Unknown,0,2013-10-19 22:35:00
6:55 PM,78.8,75.2,89,-9999,10.0,Calm,Calm,-,N/A,,Unknown,0,2013-10-19 22:55:00
7:15 PM,78.8,75.2,89,-9999,10.0,Calm,Calm,-,N/A,,Unknown,0,2013-10-19 23:15:00
7:35 PM,78.8,73.4,83,-9999,10.0,Calm,Calm,-,N/A,,Unknown,0,2013-10-19 23:35:00
7:55 PM,78.8,73.4,83,-9999,10.0,West,3.5,-,N/A,,Unknown,280,2013-10-19 23:55:00
8:15 PM,78.8,71.6,78,-9999,10.0,Calm,Calm,-,N/A,,Unknown,0,2013-10-20 00:15:00
8:35 PM,78.8,71.6,78,-9999,10.0,Calm,Calm,-,N/A,,Unknown,0,2013-10-20 00:35:00
8:55 PM,77.0,73.4,89,-9999,10.0,Calm,Calm,-,N/A,,Unknown,0,2013-10-20 00:55:00
9:15 PM,77.0,73.4,89,-9999,10.0,Calm,Calm,-,N/A,,Unknown,0,2013-10-20 01:15:00
9:35 PM,75.2,73.4,94,-9999,10.0,Calm,Calm,-,N/A,,Unknown,0,2013-10-20 01:35:00
9:55 PM,75.2,73.4,94,-9999,10.0,Calm,Calm,-,N/A,,Unknown,0,2013-10-20 01:55:00
10:15 PM,75.2,73.4,94,-9999,10.0,Calm,Calm,-,N/A,,Unknown,0,2013-10-20 02:15:00
10:35 PM,75.2,71.6,89,-9999,10.0,Calm,Calm,-,N/A,,Unknown,0,2013-10-20 02:35:00
10:55 PM,75.2,73.4,94,-9999,10.0,Calm,Calm,-,N/A,,Unknown,0,2013-10-20 02:55:00
11:15 PM,75.2,73.4,94,-9999,10.0,Calm,Calm,-,N/A,,Unknown,0,2013-10-20 03:15:00
11:35 PM,75.2,73.4,94,-9999,10.0,Calm,Calm,-,N/A,,Unknown,0,2013-10-20 03:35:00
11:55 PM,75.2,73.4,94,-9999,10.0,Calm,Calm,-,N/A,,Unknown,0,2013-10-20 03:55:00